Kezdőlap
METAR-TAF:

METAR-TAF

Repülőterek :

Kuala Terengganu, Malajzia

földrajzi szélesség: 05-22-53N, földrajzi hosszúság: 103-06-17E, magasság: 6 m

Jelenlegi meteorológiai megfigyelések

A jelentés 7 órával és 39 perccel ezelõtt készült, 21:00 UTC
Különbözõ irányokból fújó szél 2 kt
Hőmérséklet 28°C
Páratartalom 89%
Légköri nyomás 1007 hPa
Látótávolság 10 km, vagy több
Kevés felhő 1700 lábon, Cumulonimbus.

METAR: WMKN 242100Z VRB02KT 9999 FEW017CB 28/26 Q1007

Idő: 12:39 (04:39 UTC)

Előrejelzés

A jelentés 11 órával és 39 perccel ezelõtt készült, 17:00 UTC
Az előrejelzés 24-én 18 óra UTC és 25-én 18 óra UTC között érvényes
Különbözõ irányokból fújó szél 3 kt
Látótávolság 10 km, vagy több
Kevés felhő 2200 lábon

TAF: WMKN 241700Z 2418/2518 VRB03KT 9999 FEW022

Meteorológiai megfigyelések és előrejelzések több, mint 4000 repülőtéren (METAR és TAF jelentéseket).

A térképen piros és sárga pontok jelzik az elérhető meteorológiai állomásokat.

Mozgassa az egeret a pont fölött, hogy megjelenjen az állomás neve.

Azután kattintson az időjárási megfigyelések és előrejelzések megtekintéséhez.

A térkép megváltoztatása: kattintson a fekete keresztel jelölt zöld gombra ráközelítéshez, a vonallal jelölt zöld gombra távolításhoz, vagy a zöld nyilakra a szomszédos térképek eléréséhez.


METAR-TAF: